RYR016 LICJ-LIRZ
Flight info
| Callsign | RYR016 |
|---|---|
| Flight time | 0h 58m |
| Altitude | 32000 |
| Route | GIANO DCT PNZ DCT PEMAR L995 TIBER Y106 GITOD |
| Aircraft | B738/M-SDE2E3FGHIRWXY/LB1 |
Departure
| Time | 2026-04-11 09:26 |
|---|---|
| Airport | Falcone–Borsellino Airport (LICJ) |
Arrival
| Time | 2026-04-11 10:24 |
|---|---|
| Airport | Perugia San Francesco d'Assisi – Umbria International Airport (LIRZ) |
| Time | Latitude | Longitude | Altitude | Speed | Heading |
|---|---|---|---|---|---|
| 2026-04-11 09:20 | 38.18519 | 13.10605 | 73 ft | 0 kts | 162° |
| 2026-04-11 09:22 | 38.18519 | 13.10606 | 73 ft | 0 kts | 162° |
| 2026-04-11 09:23 | 38.18490 | 13.10646 | 76 ft | 11 kts | 91° |
| 2026-04-11 09:23 | 38.18502 | 13.10743 | 77 ft | 12 kts | 98° |
| 2026-04-11 09:23 | 38.18469 | 13.10875 | 77 ft | 19 kts | 113° |
| 2026-04-11 09:23 | 38.18447 | 13.11044 | 79 ft | 20 kts | 63° |
| 2026-04-11 09:24 | 38.18508 | 13.11219 | 75 ft | 23 kts | 68° |
| 2026-04-11 09:24 | 38.18567 | 13.11408 | 75 ft | 22 kts | 68° |
| 2026-04-11 09:24 | 38.18615 | 13.11600 | 72 ft | 22 kts | 90° |
| 2026-04-11 09:24 | 38.18601 | 13.11801 | 70 ft | 19 kts | 97° |
| 2026-04-11 09:25 | 38.18531 | 13.11888 | 70 ft | 15 kts | 201° |
| 2026-04-11 09:25 | 38.18501 | 13.11842 | 72 ft | 0 kts | 241° |
| 2026-04-11 09:25 | 38.18427 | 13.11616 | 81 ft | 69 kts | 246° |
| 2026-04-11 09:25 | 38.18132 | 13.10732 | 88 ft | 146 kts | 246° |
| 2026-04-11 09:26 | 38.17669 | 13.09360 | 533 ft | 180 kts | 245° |
| 2026-04-11 09:26 | 38.17219 | 13.07976 | 1653 ft | 176 kts | 247° |
| 2026-04-11 09:26 | 38.16748 | 13.06507 | 2241 ft | 188 kts | 247° |
| 2026-04-11 09:26 | 38.16206 | 13.04937 | 2830 ft | 201 kts | 246° |
| 2026-04-11 09:27 | 38.15622 | 13.03293 | 3428 ft | 213 kts | 249° |
| 2026-04-11 09:27 | 38.15480 | 13.01394 | 3958 ft | 226 kts | 286° |
| 2026-04-11 09:27 | 38.16288 | 12.99738 | 4703 ft | 230 kts | 318° |
| 2026-04-11 09:27 | 38.17630 | 12.98599 | 5473 ft | 236 kts | 329° |
| 2026-04-11 09:28 | 38.18976 | 12.97369 | 6136 ft | 245 kts | 313° |
| 2026-04-11 09:28 | 38.19988 | 12.95603 | 6846 ft | 252 kts | 301° |
| 2026-04-11 09:28 | 38.20872 | 12.93658 | 7578 ft | 259 kts | 300° |
| 2026-04-11 09:28 | 38.21795 | 12.91675 | 8216 ft | 270 kts | 302° |
| 2026-04-11 09:29 | 38.22805 | 12.89621 | 8998 ft | 275 kts | 303° |
| 2026-04-11 09:29 | 38.23835 | 12.87587 | 9804 ft | 278 kts | 303° |
| 2026-04-11 09:29 | 38.24883 | 12.85533 | 10549 ft | 282 kts | 303° |
| 2026-04-11 09:29 | 38.25950 | 12.83441 | 11327 ft | 285 kts | 303° |
| 2026-04-11 09:30 | 38.27028 | 12.81324 | 12076 ft | 289 kts | 303° |
| 2026-04-11 09:30 | 38.28200 | 12.79192 | 12578 ft | 304 kts | 309° |
| 2026-04-11 09:30 | 38.29821 | 12.77392 | 13022 ft | 320 kts | 327° |
| 2026-04-11 09:30 | 38.31868 | 12.76096 | 13475 ft | 335 kts | 335° |
| 2026-04-11 09:31 | 38.34037 | 12.74955 | 14133 ft | 343 kts | 336° |
| 2026-04-11 09:31 | 38.36257 | 12.73806 | 14872 ft | 348 kts | 336° |
| 2026-04-11 09:31 | 38.38500 | 12.72607 | 15645 ft | 352 kts | 335° |
| 2026-04-11 09:31 | 38.40737 | 12.71370 | 16404 ft | 356 kts | 335° |
| 2026-04-11 09:32 | 38.42998 | 12.70093 | 17133 ft | 359 kts | 334° |
| 2026-04-11 09:32 | 38.45296 | 12.68780 | 17854 ft | 362 kts | 334° |
| 2026-04-11 09:32 | 38.47587 | 12.67465 | 18528 ft | 366 kts | 334° |
| 2026-04-11 09:32 | 38.49934 | 12.66116 | 19205 ft | 370 kts | 334° |
| 2026-04-11 09:33 | 38.52270 | 12.64772 | 19875 ft | 373 kts | 334° |
| 2026-04-11 09:33 | 38.54638 | 12.63411 | 20513 ft | 377 kts | 334° |
| 2026-04-11 09:33 | 38.57030 | 12.62036 | 21138 ft | 380 kts | 334° |
| 2026-04-11 09:33 | 38.59448 | 12.60645 | 21721 ft | 384 kts | 334° |
| 2026-04-11 09:34 | 38.61891 | 12.59239 | 22309 ft | 387 kts | 334° |
| 2026-04-11 09:34 | 38.64355 | 12.57819 | 22892 ft | 390 kts | 334° |
| 2026-04-11 09:34 | 38.66844 | 12.56384 | 23425 ft | 394 kts | 334° |
| 2026-04-11 09:34 | 38.69355 | 12.54935 | 23959 ft | 398 kts | 334° |
| 2026-04-11 09:35 | 38.71854 | 12.53491 | 24484 ft | 401 kts | 334° |
| 2026-04-11 09:35 | 38.74398 | 12.52020 | 25038 ft | 404 kts | 334° |
| 2026-04-11 09:35 | 38.76973 | 12.50532 | 25545 ft | 407 kts | 334° |
| 2026-04-11 09:35 | 38.79565 | 12.49031 | 26020 ft | 410 kts | 334° |
| 2026-04-11 09:36 | 38.82199 | 12.47574 | 26518 ft | 413 kts | 336° |
| 2026-04-11 09:36 | 38.84937 | 12.46404 | 27022 ft | 417 kts | 344° |
| 2026-04-11 09:36 | 38.87775 | 12.45834 | 27736 ft | 416 kts | 354° |
| 2026-04-11 09:36 | 38.90641 | 12.45862 | 28385 ft | 415 kts | 2° |
| 2026-04-11 09:37 | 38.93504 | 12.46289 | 28943 ft | 415 kts | 6° |
| 2026-04-11 09:37 | 38.96375 | 12.46904 | 29499 ft | 415 kts | 8° |
| 2026-04-11 09:37 | 38.99201 | 12.47589 | 30051 ft | 413 kts | 9° |
| 2026-04-11 09:37 | 39.01985 | 12.48292 | 30556 ft | 413 kts | 9° |
| 2026-04-11 09:38 | 39.04811 | 12.49010 | 31037 ft | 412 kts | 9° |
| 2026-04-11 09:38 | 39.07617 | 12.49718 | 31511 ft | 411 kts | 9° |
| 2026-04-11 09:38 | 39.10426 | 12.50422 | 31953 ft | 410 kts | 9° |
| 2026-04-11 09:38 | 39.13281 | 12.51131 | 32013 ft | 418 kts | 9° |
| 2026-04-11 09:39 | 39.19168 | 12.52577 | 32010 ft | 436 kts | 9° |
| 2026-04-11 09:39 | 39.25232 | 12.54060 | 32009 ft | 453 kts | 9° |
| 2026-04-11 09:40 | 39.31587 | 12.55615 | 32008 ft | 470 kts | 9° |
| 2026-04-11 09:40 | 39.38042 | 12.57203 | 32008 ft | 471 kts | 9° |
| 2026-04-11 09:41 | 39.44465 | 12.58787 | 32009 ft | 470 kts | 9° |
| 2026-04-11 09:41 | 39.50921 | 12.60382 | 32008 ft | 471 kts | 9° |
| 2026-04-11 09:42 | 39.57343 | 12.61969 | 32009 ft | 472 kts | 9° |
| 2026-04-11 09:43 | 39.67007 | 12.64362 | 32009 ft | 472 kts | 9° |
| 2026-04-11 09:43 | 39.73463 | 12.65963 | 32008 ft | 472 kts | 9° |
| 2026-04-11 09:44 | 39.79889 | 12.67560 | 32009 ft | 472 kts | 9° |
| 2026-04-11 09:44 | 39.86312 | 12.69160 | 32008 ft | 471 kts | 9° |
| 2026-04-11 09:45 | 39.92757 | 12.70767 | 32008 ft | 472 kts | 9° |
| 2026-04-11 09:45 | 39.99226 | 12.72386 | 32008 ft | 473 kts | 9° |
| 2026-04-11 09:46 | 40.05701 | 12.74007 | 32008 ft | 473 kts | 9° |
| 2026-04-11 09:46 | 40.12212 | 12.75640 | 32009 ft | 473 kts | 9° |
| 2026-04-11 09:47 | 40.18649 | 12.77259 | 32013 ft | 472 kts | 9° |
| 2026-04-11 09:47 | 40.25120 | 12.78890 | 32011 ft | 472 kts | 9° |
| 2026-04-11 09:48 | 40.31539 | 12.80510 | 32012 ft | 472 kts | 9° |
| 2026-04-11 09:48 | 40.38010 | 12.82147 | 32014 ft | 472 kts | 9° |
| 2026-04-11 09:49 | 40.44479 | 12.83786 | 32016 ft | 472 kts | 9° |
| 2026-04-11 09:49 | 40.50921 | 12.85422 | 32016 ft | 473 kts | 9° |
| 2026-04-11 09:50 | 40.57352 | 12.87058 | 32020 ft | 473 kts | 9° |
| 2026-04-11 09:50 | 40.63832 | 12.88710 | 32018 ft | 472 kts | 9° |
| 2026-04-11 09:51 | 40.70281 | 12.90357 | 32017 ft | 472 kts | 9° |
| 2026-04-11 09:51 | 40.76713 | 12.92003 | 32016 ft | 472 kts | 9° |
| 2026-04-11 09:52 | 40.83147 | 12.93653 | 32023 ft | 472 kts | 9° |
| 2026-04-11 09:52 | 40.89615 | 12.95189 | 32023 ft | 471 kts | 6° |
| 2026-04-11 09:53 | 40.96127 | 12.95716 | 32026 ft | 469 kts | 358° |
| 2026-04-11 09:53 | 41.02639 | 12.95556 | 32028 ft | 468 kts | 356° |
| 2026-04-11 09:54 | 41.09121 | 12.95256 | 32027 ft | 468 kts | 356° |
| 2026-04-11 09:54 | 41.15645 | 12.94969 | 32027 ft | 468 kts | 356° |
| 2026-04-11 09:55 | 41.22166 | 12.94715 | 32020 ft | 468 kts | 356° |
| 2026-04-11 09:55 | 41.28670 | 12.94482 | 32016 ft | 468 kts | 356° |
| 2026-04-11 09:56 | 41.35181 | 12.94258 | 32016 ft | 468 kts | 356° |
| 2026-04-11 09:56 | 41.41728 | 12.94036 | 32013 ft | 468 kts | 356° |
| 2026-04-11 09:57 | 41.48223 | 12.93816 | 32010 ft | 468 kts | 356° |
| 2026-04-11 09:57 | 41.54750 | 12.93594 | 32018 ft | 468 kts | 356° |
| 2026-04-11 09:57 | 41.57996 | 12.93485 | 32023 ft | 457 kts | 356° |
| 2026-04-11 09:58 | 41.61115 | 12.93384 | 32027 ft | 440 kts | 356° |
| 2026-04-11 09:58 | 41.64090 | 12.93289 | 32030 ft | 423 kts | 356° |
| 2026-04-11 09:58 | 41.67014 | 12.93195 | 31885 ft | 411 kts | 356° |
| 2026-04-11 09:58 | 41.69814 | 12.93101 | 31522 ft | 406 kts | 356° |
| 2026-04-11 09:59 | 41.72639 | 12.93003 | 31010 ft | 403 kts | 356° |
| 2026-04-11 09:59 | 41.75433 | 12.92904 | 30399 ft | 404 kts | 356° |
| 2026-04-11 09:59 | 41.78239 | 12.92803 | 29726 ft | 405 kts | 356° |
| 2026-04-11 09:59 | 41.81066 | 12.92703 | 29015 ft | 407 kts | 356° |
| 2026-04-11 10:00 | 41.83911 | 12.92604 | 28434 ft | 405 kts | 356° |
| 2026-04-11 10:00 | 41.86692 | 12.92508 | 27915 ft | 402 kts | 356° |
| 2026-04-11 10:00 | 41.89481 | 12.92413 | 27370 ft | 399 kts | 355° |
| 2026-04-11 10:00 | 41.92250 | 12.92319 | 26821 ft | 396 kts | 355° |
| 2026-04-11 10:01 | 41.94981 | 12.92226 | 26282 ft | 393 kts | 355° |
| 2026-04-11 10:01 | 41.97694 | 12.92025 | 25733 ft | 389 kts | 351° |
| 2026-04-11 10:01 | 42.00322 | 12.91379 | 25203 ft | 382 kts | 341° |
| 2026-04-11 10:01 | 42.02753 | 12.90078 | 24684 ft | 375 kts | 330° |
| 2026-04-11 10:02 | 42.04965 | 12.88250 | 24149 ft | 370 kts | 323° |
| 2026-04-11 10:02 | 42.06961 | 12.86144 | 23617 ft | 365 kts | 317° |
| 2026-04-11 10:02 | 42.08778 | 12.83784 | 23118 ft | 360 kts | 313° |
| 2026-04-11 10:02 | 42.10467 | 12.81344 | 22622 ft | 357 kts | 311° |
| 2026-04-11 10:03 | 42.12113 | 12.78873 | 22104 ft | 354 kts | 310° |
| 2026-04-11 10:03 | 42.13744 | 12.76410 | 21595 ft | 352 kts | 310° |
| 2026-04-11 10:03 | 42.15360 | 12.73987 | 21108 ft | 349 kts | 311° |
| 2026-04-11 10:03 | 42.16980 | 12.71577 | 20598 ft | 346 kts | 311° |
| 2026-04-11 10:04 | 42.18589 | 12.69199 | 20099 ft | 344 kts | 311° |
| 2026-04-11 10:04 | 42.20198 | 12.66829 | 19602 ft | 341 kts | 311° |
| 2026-04-11 10:04 | 42.21787 | 12.64490 | 19110 ft | 338 kts | 312° |
| 2026-04-11 10:04 | 42.23395 | 12.62197 | 18611 ft | 337 kts | 314° |
| 2026-04-11 10:05 | 42.25161 | 12.60146 | 18114 ft | 336 kts | 324° |
| 2026-04-11 10:05 | 42.27191 | 12.58614 | 17640 ft | 335 kts | 334° |
| 2026-04-11 10:05 | 42.29322 | 12.57416 | 17145 ft | 333 kts | 337° |
| 2026-04-11 10:05 | 42.31480 | 12.56339 | 16678 ft | 330 kts | 338° |
| 2026-04-11 10:06 | 42.33630 | 12.55290 | 16191 ft | 328 kts | 338° |
| 2026-04-11 10:06 | 42.35773 | 12.54227 | 15724 ft | 325 kts | 338° |
| 2026-04-11 10:06 | 42.37870 | 12.53164 | 15268 ft | 322 kts | 338° |
| 2026-04-11 10:06 | 42.39951 | 12.52093 | 14803 ft | 319 kts | 337° |
| 2026-04-11 10:07 | 42.42030 | 12.51012 | 14340 ft | 317 kts | 337° |
| 2026-04-11 10:07 | 42.44064 | 12.49951 | 13866 ft | 314 kts | 337° |
| 2026-04-11 10:07 | 42.46089 | 12.48894 | 13420 ft | 312 kts | 337° |
| 2026-04-11 10:07 | 42.48096 | 12.47846 | 12972 ft | 309 kts | 337° |
| 2026-04-11 10:08 | 42.50092 | 12.46803 | 12531 ft | 308 kts | 337° |
| 2026-04-11 10:08 | 42.52102 | 12.45752 | 12056 ft | 306 kts | 337° |
| 2026-04-11 10:08 | 42.54072 | 12.44722 | 11611 ft | 305 kts | 338° |
| 2026-04-11 10:08 | 42.56049 | 12.43687 | 11175 ft | 303 kts | 337° |
| 2026-04-11 10:09 | 42.58012 | 12.42659 | 10719 ft | 302 kts | 338° |
| 2026-04-11 10:09 | 42.59961 | 12.41638 | 10386 ft | 296 kts | 338° |
| 2026-04-11 10:09 | 42.61834 | 12.40657 | 10239 ft | 285 kts | 337° |
| 2026-04-11 10:09 | 42.63642 | 12.39710 | 10130 ft | 274 kts | 337° |
| 2026-04-11 10:10 | 42.65420 | 12.38776 | 9823 ft | 270 kts | 337° |
| 2026-04-11 10:10 | 42.67164 | 12.37858 | 9477 ft | 270 kts | 338° |
| 2026-04-11 10:10 | 42.68906 | 12.36941 | 9134 ft | 269 kts | 337° |
| 2026-04-11 10:10 | 42.70639 | 12.36029 | 8793 ft | 268 kts | 337° |
| 2026-04-11 10:11 | 42.72380 | 12.35112 | 8453 ft | 266 kts | 338° |
| 2026-04-11 10:11 | 42.74118 | 12.34196 | 8118 ft | 265 kts | 337° |
| 2026-04-11 10:11 | 42.75841 | 12.33288 | 7783 ft | 264 kts | 337° |
| 2026-04-11 10:11 | 42.77553 | 12.32401 | 7449 ft | 263 kts | 339° |
| 2026-04-11 10:12 | 42.79324 | 12.31871 | 7114 ft | 264 kts | 356° |
| 2026-04-11 10:12 | 42.81114 | 12.32383 | 6761 ft | 268 kts | 24° |
| 2026-04-11 10:12 | 42.82639 | 12.33878 | 6467 ft | 268 kts | 38° |
| 2026-04-11 10:12 | 42.84014 | 12.35493 | 6346 ft | 258 kts | 38° |
| 2026-04-11 10:13 | 42.85379 | 12.37059 | 6263 ft | 248 kts | 38° |
| 2026-04-11 10:13 | 42.86689 | 12.38530 | 6169 ft | 238 kts | 37° |
| 2026-04-11 10:13 | 42.87953 | 12.39943 | 5931 ft | 237 kts | 38° |
| 2026-04-11 10:13 | 42.89223 | 12.41366 | 5680 ft | 236 kts | 38° |
| 2026-04-11 10:14 | 42.90468 | 12.42766 | 5588 ft | 227 kts | 38° |
| 2026-04-11 10:14 | 42.91661 | 12.44108 | 5545 ft | 216 kts | 38° |
| 2026-04-11 10:14 | 42.92819 | 12.45283 | 5499 ft | 204 kts | 28° |
| 2026-04-11 10:14 | 42.94130 | 12.45988 | 5394 ft | 201 kts | 13° |
| 2026-04-11 10:15 | 42.95479 | 12.46438 | 5262 ft | 201 kts | 11° |
| 2026-04-11 10:15 | 42.96867 | 12.46895 | 4787 ft | 208 kts | 13° |
| 2026-04-11 10:15 | 42.98242 | 12.47389 | 4372 ft | 196 kts | 14° |
| 2026-04-11 10:15 | 42.99394 | 12.48119 | 4209 ft | 174 kts | 36° |
| 2026-04-11 10:16 | 43.00190 | 12.49299 | 3827 ft | 170 kts | 56° |
| 2026-04-11 10:16 | 43.00734 | 12.50824 | 2909 ft | 198 kts | 69° |
| 2026-04-11 10:16 | 43.00922 | 12.52598 | 2698 ft | 178 kts | 93° |
| 2026-04-11 10:16 | 43.00798 | 12.54134 | 2757 ft | 150 kts | 95° |
| 2026-04-11 10:17 | 43.00687 | 12.55541 | 2779 ft | 158 kts | 95° |
| 2026-04-11 10:17 | 43.00306 | 12.57075 | 2769 ft | 182 kts | 130° |
| 2026-04-11 10:17 | 42.99191 | 12.57885 | 2772 ft | 188 kts | 168° |
| 2026-04-11 10:17 | 42.97887 | 12.58168 | 2769 ft | 189 kts | 170° |
| 2026-04-11 10:18 | 42.96523 | 12.58458 | 3079 ft | 202 kts | 169° |
| 2026-04-11 10:18 | 42.95152 | 12.58754 | 3385 ft | 200 kts | 170° |
| 2026-04-11 10:18 | 42.93809 | 12.58643 | 3368 ft | 193 kts | 204° |
| 2026-04-11 10:18 | 42.92844 | 12.57514 | 3366 ft | 179 kts | 238° |
| 2026-04-11 10:19 | 42.92522 | 12.55903 | 3374 ft | 177 kts | 265° |
| 2026-04-11 10:19 | 42.92422 | 12.54215 | 3366 ft | 178 kts | 265° |
| 2026-04-11 10:19 | 42.92307 | 12.52559 | 3366 ft | 174 kts | 265° |
| 2026-04-11 10:19 | 42.92187 | 12.50928 | 3200 ft | 171 kts | 265° |
| 2026-04-11 10:20 | 42.92223 | 12.49322 | 2910 ft | 172 kts | 291° |
| 2026-04-11 10:20 | 42.92939 | 12.48063 | 2643 ft | 171 kts | 327° |
| 2026-04-11 10:20 | 42.94069 | 12.47627 | 2490 ft | 174 kts | 352° |
| 2026-04-11 10:20 | 42.95340 | 12.47331 | 2833 ft | 194 kts | 352° |
| 2026-04-11 10:21 | 42.96682 | 12.47211 | 2876 ft | 189 kts | 1° |
| 2026-04-11 10:21 | 42.97923 | 12.47319 | 2867 ft | 169 kts | 9° |
| 2026-04-11 10:21 | 42.99051 | 12.47656 | 2773 ft | 162 kts | 14° |
| 2026-04-11 10:21 | 43.00148 | 12.48064 | 2588 ft | 162 kts | 14° |
| 2026-04-11 10:22 | 43.01186 | 12.48398 | 2399 ft | 151 kts | 14° |
| 2026-04-11 10:22 | 43.02221 | 12.48756 | 2186 ft | 149 kts | 15° |
| 2026-04-11 10:22 | 43.03214 | 12.49124 | 1992 ft | 150 kts | 15° |
| 2026-04-11 10:22 | 43.04233 | 12.49494 | 1689 ft | 154 kts | 14° |
| 2026-04-11 10:23 | 43.05265 | 12.49831 | 1485 ft | 150 kts | 14° |
| 2026-04-11 10:23 | 43.06262 | 12.50177 | 1267 ft | 147 kts | 14° |
| 2026-04-11 10:23 | 43.07260 | 12.50514 | 1052 ft | 145 kts | 14° |
| 2026-04-11 10:23 | 43.08224 | 12.50843 | 855 ft | 142 kts | 15° |
| 2026-04-11 10:24 | 43.09176 | 12.51171 | 713 ft | 142 kts | 15° |
| 2026-04-11 10:24 | 43.10064 | 12.51486 | 702 ft | 101 kts | 15° |
| 2026-04-11 10:24 | 43.10430 | 12.51614 | 707 ft | 22 kts | 14° |